Time;durP1;ratioP1;P1;durP2;ratioP2;P2;SDS_P1;SDS_P2;PMS_P1;PMS_P2;Temp;Humidity;BMP_temperature;BMP_pressure;BME280_temperature;BME280_humidity;BME280_pressure;Samples;Min_cycle;Max_cycle;Signal;HPM_P1;HPM_P2
2022/05/20 00:01:32;;;;;;;;;;;;;;;28.87;37.00;94911.47;4944491;28;9130;-61
2022/05/20 00:04:00;;;;;;;;;;;;;;;28.87;36.95;94915.00;4949260;28;9305;-61
2022/05/20 00:06:35;;;;;;;;;;;;;;;28.87;36.85;94909.44;4952408;28;7033;-61
2022/05/20 00:09:22;;;;;;;;;;;;;;;28.88;36.48;94916.47;4940614;29;9508;-61
2022/05/20 00:11:48;;;;;;;;;;;;;;;28.87;36.41;94915.00;4925466;29;7264;-61
2022/05/20 00:14:31;;;;;;;;;;;;;;;28.85;36.74;94912.00;4936583;28;7172;-61
2022/05/20 00:17:05;;;;;;;;;;;;;;;28.85;36.94;94912.00;4936694;29;9047;-61
2022/05/20 00:19:33;;;;;;;;;;;;;;;28.85;36.61;94911.22;4967564;28;7062;-61
2022/05/20 00:22:05;;;;;;;;;;;;;;;28.85;36.89;94909.22;4935053;28;9099;-61
2022/05/20 00:25:45;;;;;;;;;;;;;;;28.86;37.17;94913.47;4930411;29;9092;-61
2022/05/20 00:27:22;;;;;;;;;;;;;;;28.86;36.98;94913.47;4932036;29;6997;-61
2022/05/20 00:29:59;;;;;;;;;;;;;;;28.85;37.08;94902.94;4948226;29;7164;-61
2022/05/20 00:32:29;;;;;;;;;;;;;;;28.86;37.42;94905.16;4937075;29;9337;-61
2022/05/20 00:35:27;;;;;;;;;;;;;;;28.86;37.01;94904.44;4948891;28;7246;-61
2022/05/20 00:37:56;;;;;;;;;;;;;;;28.84;36.84;94916.00;4905513;29;9037;-61
2022/05/20 00:40:34;;;;;;;;;;;;;;;28.85;37.00;94906.44;4897542;29;7282;-61
2022/05/20 00:43:15;;;;;;;;;;;;;;;28.83;36.64;94909.00;4924325;28;9473;-61
2022/05/20 00:45:44;;;;;;;;;;;;;;;28.84;37.01;94906.97;4891438;29;7151;-61
2022/05/20 00:48:10;;;;;;;;;;;;;;;28.84;36.57;94909.75;4903795;29;8782;-61
2022/05/20 00:50:45;;;;;;;;;;;;;;;28.84;37.39;94898.69;4917858;29;8764;-61
2022/05/20 00:53:18;;;;;;;;;;;;;;;28.83;36.82;94906.22;4910545;29;7268;-61
2022/05/20 00:55:46;;;;;;;;;;;;;;;28.83;36.72;94897.91;4893791;29;9805;-61
2022/05/20 00:58:20;;;;;;;;;;;;;;;28.84;37.11;94896.63;4901293;29;7256;-61
2022/05/20 01:00:52;;;;;;;;;;;;;;;28.84;36.63;94891.09;4917236;29;9172;-61
2022/05/20 01:03:32;;;;;;;;;;;;;;;28.82;37.02;94895.66;4917444;29;7096;-61
2022/05/20 01:06:13;;;;;;;;;;;;;;;28.82;37.13;94901.19;4901147;29;8687;-61
2022/05/20 01:08:41;;;;;;;;;;;;;;;28.81;37.06;94886.63;4907363;29;7132;-61
2022/05/20 01:11:07;;;;;;;;;;;;;;;28.80;37.50;94887.13;4913368;29;6983;-61
2022/05/20 01:13:44;;;;;;;;;;;;;;;28.82;36.63;94887.34;4927070;28;7001;-61
2022/05/20 01:16:32;;;;;;;;;;;;;;;28.84;36.89;94890.38;4940755;28;7865;-61
2022/05/20 01:19:01;;;;;;;;;;;;;;;28.83;36.88;94886.84;4973292;28;7077;-61
2022/05/20 01:21:38;;;;;;;;;;;;;;;28.85;36.79;94889.09;4965539;28;7227;-61
2022/05/20 01:24:33;;;;;;;;;;;;;;;28.83;36.88;94888.84;4936607;28;7276;-61
2022/05/20 01:26:59;;;;;;;;;;;;;;;28.80;37.04;94885.09;4905370;29;7126;-61
2022/05/20 01:29:26;;;;;;;;;;;;;;;28.78;36.98;94893.19;4887585;29;9107;-61
2022/05/20 01:31:53;;;;;;;;;;;;;;;28.74;37.18;94884.41;4903268;29;8778;-61
2022/05/20 01:34:20;;;;;;;;;;;;;;;28.73;36.83;94887.72;4894897;29;8795;-61
2022/05/20 01:36:48;;;;;;;;;;;;;;;28.70;36.95;94883.97;4905988;29;7252;-61
2022/05/20 01:39:25;;;;;;;;;;;;;;;28.70;37.18;94883.22;4896128;29;7252;-60
2022/05/20 01:42:11;;;;;;;;;;;;;;;28.69;36.99;94881.69;4892298;29;8974;-60
2022/05/20 01:45:12;;;;;;;;;;;;;;;28.71;37.25;94881.97;4895956;29;6982;-60
2022/05/20 01:48:20;;;;;;;;;;;;;;;28.69;37.05;94868.63;4852905;29;7523;-60
2022/05/20 01:50:55;;;;;;;;;;;;;;;28.69;37.04;94870.63;4838424;29;7553;-60
2022/05/20 01:53:35;;;;;;;;;;;;;;;28.69;37.09;94874.16;4835861;29;9392;-60
2022/05/20 01:56:14;;;;;;;;;;;;;;;28.69;37.03;94876.16;4828055;29;8759;-60
2022/05/20 01:58:45;;;;;;;;;;;;;;;28.66;37.21;94866.91;4828313;29;7204;-60
2022/05/20 02:01:21;;;;;;;;;;;;;;;28.66;37.25;94871.69;4825253;29;8810;-60
2022/05/20 02:04:14;;;;;;;;;;;;;;;28.67;36.89;94871.16;4837742;29;7862;-60
2022/05/20 02:06:57;;;;;;;;;;;;;;;28.66;36.61;94866.91;4819934;29;8912;-60
2022/05/20 02:09:44;;;;;;;;;;;;;;;28.66;37.14;94853.06;4823095;29;9130;-60
2022/05/20 02:12:26;;;;;;;;;;;;;;;28.68;37.21;94852.53;4834326;29;9207;-60
2022/05/20 02:14:58;;;;;;;;;;;;;;;28.70;37.04;94850.75;4813555;29;9120;-60
2022/05/20 02:17:53;;;;;;;;;;;;;;;28.69;36.96;94851.25;4833976;29;7041;-60
2022/05/20 02:20:47;;;;;;;;;;;;;;;28.67;37.06;94842.72;4816337;29;7865;-60
2022/05/20 02:23:35;;;;;;;;;;;;;;;28.64;37.03;94847.31;4818235;29;7267;-61
2022/05/20 02:26:06;;;;;;;;;;;;;;;28.63;37.18;94848.56;4833767;29;7251;-61
2022/05/20 02:28:57;;;;;;;;;;;;;;;28.63;37.12;94842.28;4842693;29;9130;-61
2022/05/20 02:31:37;;;;;;;;;;;;;;;28.63;36.99;94843.03;4857801;29;8909;-61
2022/05/20 02:34:06;;;;;;;;;;;;;;;28.63;37.11;94847.81;4855318;29;9069;-61
2022/05/20 02:36:34;;;;;;;;;;;;;;;28.64;37.02;94843.78;4857690;29;7900;-61
2022/05/20 02:39:33;;;;;;;;;;;;;;;28.62;37.11;94841.53;4856160;29;9066;-61
2022/05/20 02:42:16;;;;;;;;;;;;;;;28.61;37.52;94845.56;4820507;29;6877;-61
2022/05/20 02:44:54;;;;;;;;;;;;;;;28.60;36.85;94840.56;4805370;29;9159;-61
2022/05/20 02:47:23;;;;;;;;;;;;;;;28.60;37.38;94835.75;4818494;29;7294;-61
2022/05/20 02:49:59;;;;;;;;;;;;;;;28.60;37.12;94830.22;4837223;29;7290;-61
2022/05/20 02:52:30;;;;;;;;;;;;;;;28.64;36.99;94833.47;4817987;29;8751;-61
2022/05/20 02:54:56;;;;;;;;;;;;;;;28.65;37.29;94836.97;4836208;29;8721;-61
2022/05/20 02:57:24;;;;;;;;;;;;;;;28.64;37.23;94832.72;4869731;29;9503;-60
2022/05/20 03:05:29;;;;;;;;;;;;;;;28.59;37.03;94837.03;4881543;29;7065;-60
2022/05/20 03:07:57;;;;;;;;;;;;;;;28.57;37.26;94836.81;4893908;29;9242;-60
2022/05/20 03:10:25;;;;;;;;;;;;;;;28.58;37.11;94840.31;4885976;29;9281;-61
2022/05/20 03:12:56;;;;;;;;;;;;;;;28.56;36.84;94840.06;4873732;29;9377;-61
2022/05/20 03:15:24;;;;;;;;;;;;;;;28.57;36.93;94833.25;4881409;29;9396;-61
2022/05/20 03:17:50;;;;;;;;;;;;;;;28.53;37.03;94841.84;4919989;28;7342;-60
2022/05/20 03:20:16;;;;;;;;;;;;;;;28.53;37.16;94841.84;4931293;28;8139;-61
2022/05/20 03:22:54;;;;;;;;;;;;;;;28.51;37.21;94836.09;4959837;28;7259;-61
2022/05/20 03:25:23;;;;;;;;;;;;;;;28.50;37.31;94836.59;4926813;29;9102;-61
2022/05/20 03:27:56;;;;;;;;;;;;;;;28.47;37.32;94835.63;4933585;28;7477;-61
2022/05/20 03:30:53;;;;;;;;;;;;;;;28.49;36.88;94840.66;4935072;28;9123;-61
2022/05/20 03:33:21;;;;;;;;;;;;;;;28.48;37.36;94837.13;4961014;28;7544;-61
2022/05/20 03:35:48;;;;;;;;;;;;;;;28.47;37.10;94840.41;4932437;29;7146;-61
2022/05/20 03:38:15;;;;;;;;;;;;;;;28.46;37.86;94839.66;4943456;28;9239;-61
2022/05/20 03:40:50;;;;;;;;;;;;;;;28.46;37.09;94834.13;4933826;29;7239;-61
2022/05/20 03:43:16;;;;;;;;;;;;;;;28.45;36.71;94829.84;4933337;29;7191;-60
2022/05/20 03:45:45;;;;;;;;;;;;;;;28.45;37.01;94838.16;4935471;29;9253;-60
2022/05/20 03:48:12;;;;;;;;;;;;;;;28.44;36.85;94833.16;4968093;28;7032;-59
2022/05/20 03:50:44;;;;;;;;;;;;;;;28.45;37.43;94840.19;4933561;29;7137;-60
2022/05/20 03:53:12;;;;;;;;;;;;;;;28.44;37.05;94833.91;4944162;28;9045;-60
2022/05/20 03:55:38;;;;;;;;;;;;;;;28.42;37.29;94832.91;4928913;29;9019;-61
2022/05/20 03:58:05;;;;;;;;;;;;;;;28.41;36.88;94829.38;4922918;29;9617;-61
2022/05/20 04:00:31;;;;;;;;;;;;;;;28.41;36.85;94829.38;4945300;28;9089;-60
2022/05/20 04:03:00;;;;;;;;;;;;;;;28.42;37.34;94827.38;4923842;29;9130;-60
2022/05/20 04:05:36;;;;;;;;;;;;;;;28.42;37.09;94825.38;4933987;29;7061;-60
2022/05/20 04:08:04;;;;;;;;;;;;;;;28.42;36.79;94832.91;4932591;29;9325;-60
2022/05/20 04:10:34;;;;;;;;;;;;;;;28.40;37.02;94830.69;4933929;29;6988;-61
2022/05/20 04:13:02;;;;;;;;;;;;;;;28.41;36.88;94829.38;4936231;29;9132;-60
2022/05/20 04:15:28;;;;;;;;;;;;;;;28.41;36.89;94829.38;4950047;28;7129;-60
2022/05/20 04:18:00;;;;;;;;;;;;;;;28.41;36.75;94832.16;4935139;29;9384;-59
2022/05/20 04:20:28;;;;;;;;;;;;;;;28.41;36.88;94823.84;4942557;28;8746;-60
2022/05/20 04:22:55;;;;;;;;;;;;;;;28.39;36.85;94826.41;4933880;28;9449;-60
2022/05/20 04:25:23;;;;;;;;;;;;;;;28.41;36.97;94834.16;4974278;28;8723;-60
2022/05/20 04:27:49;;;;;;;;;;;;;;;28.40;37.03;94833.44;4944188;28;8986;-60
2022/05/20 04:30:15;;;;;;;;;;;;;;;28.41;36.77;94834.16;4958614;28;9054;-59
2022/05/20 04:32:53;;;;;;;;;;;;;;;28.42;37.14;94833.66;4952622;28;6871;-59
2022/05/20 04:35:19;;;;;;;;;;;;;;;28.44;36.72;94836.66;4945214;28;9067;-60
2022/05/20 04:38:04;;;;;;;;;;;;;;;28.46;36.48;94831.38;4935438;28;9105;-60
2022/05/20 04:40:36;;;;;;;;;;;;;;;28.47;36.53;94835.63;4926353;28;8518;-61
2022/05/20 04:48:34;;;;;;;;;;;;;;;28.50;36.67;94842.13;4940660;28;9085;-60
2022/05/20 04:51:00;;;;;;;;;;;;;;;28.49;36.78;94846.94;4943914;28;9400;-60
2022/05/20 04:56:10;;;;;;;;;;;;;;;28.50;36.52;94848.41;4936044;28;7390;-60
2022/05/20 04:58:36;;;;;;;;;;;;;;;28.48;36.53;94845.44;4959556;28;7238;-60
2022/05/20 05:01:05;;;;;;;;;;;;;;;28.46;36.74;94842.44;4949522;28;8686;-59
2022/05/20 05:03:31;;;;;;;;;;;;;;;28.45;36.87;94840.19;4950582;28;8355;-59
2022/05/20 05:05:57;;;;;;;;;;;;;;;28.45;36.80;94843.69;4924622;28;8968;-59
2022/05/20 05:08:23;;;;;;;;;;;;;;;28.44;36.47;94842.19;4937046;28;7232;-60
2022/05/20 05:10:49;;;;;;;;;;;;;;;28.44;36.56;94842.19;4938829;28;7310;-60
2022/05/20 05:13:17;;;;;;;;;;;;;;;28.45;36.27;94838.16;4923799;28;7615;-59
2022/05/20 05:16:09;;;;;;;;;;;;;;;28.46;36.10;94842.44;4940732;28;9505;-59
2022/05/20 05:18:37;;;;;;;;;;;;;;;28.44;36.02;94839.44;4967150;28;7260;-60
2022/05/20 05:21:21;;;;;;;;;;;;;;;28.38;36.30;94845.00;4944181;28;7252;-59
2022/05/20 05:23:47;;;;;;;;;;;;;;;28.38;35.79;94842.25;4947652;28;8541;-58
2022/05/20 05:26:13;;;;;;;;;;;;;;;28.38;35.59;94847.78;4949012;28;6860;-59
2022/05/20 05:28:40;;;;;;;;;;;;;;;28.36;36.08;94849.59;4953267;28;8830;-59
2022/05/20 05:31:06;;;;;;;;;;;;;;;28.36;36.13;94852.34;4935246;28;7568;-59
2022/05/20 05:33:42;;;;;;;;;;;;;;;28.33;35.79;94847.84;4937699;28;7210;-60
2022/05/20 05:36:18;;;;;;;;;;;;;;;28.35;36.23;94848.84;4948773;28;9467;-59
2022/05/20 05:38:50;;;;;;;;;;;;;;;28.35;35.73;94850.84;4949248;28;6860;-58
2022/05/20 05:41:22;;;;;;;;;;;;;;;28.34;36.24;94852.84;4953117;28;9155;-59
2022/05/20 05:43:55;;;;;;;;;;;;;;;28.34;36.27;94847.31;4944027;28;7087;-59
2022/05/20 05:46:25;;;;;;;;;;;;;;;28.36;35.89;94846.81;4936096;28;7058;-60
2022/05/20 05:49:12;;;;;;;;;;;;;;;28.27;35.83;94831.28;4954258;28;9042;-60
2022/05/20 05:51:38;;;;;;;;;;;;;;;28.29;36.02;94850.16;4954661;28;9398;-60
2022/05/20 05:54:06;;;;;;;;;;;;;;;28.27;36.27;94841.63;4942162;28;9067;-59
2022/05/20 05:56:32;;;;;;;;;;;;;;;28.26;35.91;94853.94;4954511;28;9381;-59
2022/05/20 05:58:58;;;;;;;;;;;;;;;28.26;35.72;94851.19;4955422;28;7358;-59
2022/05/20 06:01:24;;;;;;;;;;;;;;;28.21;35.82;94849.19;4930616;28;9559;-59
2022/05/20 06:04:02;;;;;;;;;;;;;;;28.18;35.56;94844.72;4939820;28;7012;-59
2022/05/20 06:06:29;;;;;;;;;;;;;;;28.18;35.42;94848.25;4937934;28;7709;-59
2022/05/20 06:09:11;;;;;;;;;;;;;;;28.18;35.58;94850.25;4938639;28;7235;-59
2022/05/20 06:11:39;;;;;;;;;;;;;;;28.16;35.38;94844.50;4933722;28;9123;-59
2022/05/20 06:14:07;;;;;;;;;;;;;;;28.15;35.54;94852.03;4934840;28;9074;-60
2022/05/20 06:16:33;;;;;;;;;;;;;;;28.15;35.36;94854.03;4939612;28;9035;-58
2022/05/20 06:18:59;;;;;;;;;;;;;;;28.14;35.49;94852.56;4937312;28;6904;-59
2022/05/20 06:21:32;;;;;;;;;;;;;;;28.12;35.87;94855.81;4938045;28;7242;-59
2022/05/20 06:24:05;;;;;;;;;;;;;;;28.12;36.41;94853.06;4935131;28;9337;-59
2022/05/20 06:26:36;;;;;;;;;;;;;;;28.07;36.11;94851.09;4936709;28;6852;-58
2022/05/20 06:29:24;;;;;;;;;;;;;;;28.09;35.96;94858.88;4949202;28;7285;-58
2022/05/20 06:31:50;;;;;;;;;;;;;;;28.07;35.43;94858.66;4935036;28;7227;-59
2022/05/20 06:34:17;;;;;;;;;;;;;;;28.03;34.89;94858.94;4947740;28;9435;-58
2022/05/20 06:42:15;;;;;;;;;;;;;;;27.95;34.95;94851.69;4934205;28;7202;-58
2022/05/20 06:44:41;;;;;;;;;;;;;;;27.90;34.88;94850.47;4964091;28;7745;-59
2022/05/20 06:47:07;;;;;;;;;;;;;;;27.90;35.10;94852.47;4934660;28;9096;-58
2022/05/20 06:49:36;;;;;;;;;;;;;;;27.89;35.38;94851.72;4937472;28;9585;-58
2022/05/20 06:52:03;;;;;;;;;;;;;;;27.90;35.25;94852.47;4950846;28;7203;-58
2022/05/20 06:54:31;;;;;;;;;;;;;;;27.87;35.63;94856.28;4933999;28;7668;-60
2022/05/20 06:56:57;;;;;;;;;;;;;;;27.86;36.10;94858.28;4962402;28;7511;-58
2022/05/20 06:59:23;;;;;;;;;;;;;;;27.86;35.62;94857.53;4946599;28;7022;-58
2022/05/20 07:01:52;;;;;;;;;;;;;;;27.84;34.81;94860.06;4952897;28;7230;-58
2022/05/20 07:04:19;;;;;;;;;;;;;;;27.79;34.20;94864.38;4943671;28;7284;-58
2022/05/20 07:06:46;;;;;;;;;;;;;;;27.72;34.87;94858.66;4930204;28;7128;-59
2022/05/20 07:09:15;;;;;;;;;;;;;;;27.64;34.98;94861.97;4948821;28;8813;-58
2022/05/20 07:11:47;;;;;;;;;;;;;;;27.51;35.20;94864.56;4932758;28;9006;-58
2022/05/20 07:14:17;;;;;;;;;;;;;;;27.41;34.92;94868.91;4930252;28;9062;-58
2022/05/20 07:16:43;;;;;;;;;;;;;;;27.40;37.04;94869.41;4934072;28;9609;-59
2022/05/20 07:19:11;;;;;;;;;;;;;;;27.43;37.12;94863.63;4947153;28;8688;-59
2022/05/20 07:21:42;;;;;;;;;;;;;;;27.48;37.47;94864.84;4960897;28;9057;-59
2022/05/20 07:24:08;;;;;;;;;;;;;;;27.52;36.66;94863.31;4949290;28;7124;-60
2022/05/20 07:26:36;;;;;;;;;;;;;;;27.57;36.27;94865.28;4953919;28;8403;-60
2022/05/20 07:29:05;;;;;;;;;;;;;;;27.59;37.01;94860.00;4935424;28;9109;-60
2022/05/20 07:31:36;;;;;;;;;;;;;;;27.64;36.34;94861.97;4943587;28;9260;-59
2022/05/20 07:34:35;;;;;;;;;;;;;;;27.68;37.34;94866.47;4942187;28;9104;-59
2022/05/20 07:37:01;;;;;;;;;;;;;;;27.70;37.25;94855.66;4891490;29;8763;-60
2022/05/20 07:39:29;;;;;;;;;;;;;;;27.74;36.24;94856.88;4889549;29;6864;-59
2022/05/20 07:42:04;;;;;;;;;;;;;;;27.77;36.48;94863.41;4899645;29;9425;-60
2022/05/20 07:44:36;;;;;;;;;;;;;;;27.76;36.88;94859.88;4901763;29;9089;-60
2022/05/20 07:47:03;;;;;;;;;;;;;;;27.81;36.08;94861.84;4894452;29;7221;-60
2022/05/20 07:49:33;;;;;;;;;;;;;;;27.83;36.90;94861.31;4903606;29;9398;-60
2022/05/20 07:52:03;;;;;;;;;;;;;;;27.85;36.57;94865.09;4902909;29;7080;-60
2022/05/20 07:54:38;;;;;;;;;;;;;;;27.86;36.34;94858.28;4903860;29;7314;-59
2022/05/20 07:57:13;;;;;;;;;;;;;;;27.89;36.02;94850.97;4908947;29;8942;-60
2022/05/20 07:59:54;;;;;;;;;;;;;;;27.92;36.25;94855.47;4902546;29;6860;-59
2022/05/20 08:02:29;;;;;;;;;;;;;;;27.93;36.30;94851.44;4910605;29;9451;-59
2022/05/20 08:04:58;;;;;;;;;;;;;;;27.95;36.83;94843.41;4904052;29;9102;-59
2022/05/20 08:07:37;;;;;;;;;;;;;;;27.95;36.58;94846.16;4910397;29;7254;-60
2022/05/20 08:10:09;;;;;;;;;;;;;;;27.96;37.43;94840.13;4911287;29;8006;-60
2022/05/20 08:12:45;;;;;;;;;;;;;;;27.97;37.51;94838.09;4910810;28;8694;-60
2022/05/20 08:15:20;;;;;;;;;;;;;;;27.96;36.45;94839.34;4931776;28;7147;-59
2022/05/20 08:17:50;;;;;;;;;;;;;;;27.96;36.90;94837.34;4943153;28;6889;-59
2022/05/20 08:20:25;;;;;;;;;;;;;;;27.97;37.11;94833.34;4925899;28;8981;-59
2022/05/20 08:22:53;;;;;;;;;;;;;;;27.94;36.68;94828.81;4938081;28;9134;-59
2022/05/20 08:25:21;;;;;;;;;;;;;;;27.95;37.04;94832.34;4936577;28;7264;-59
2022/05/20 08:27:48;;;;;;;;;;;;;;;27.95;37.35;94824.03;4943865;28;9089;-59
2022/05/20 08:30:22;;;;;;;;;;;;;;;27.97;37.02;94818.75;4946475;28;9126;-59
2022/05/20 08:33:05;;;;;;;;;;;;;;;27.98;37.06;94820.25;4964611;28;9060;-59
2022/05/20 08:35:33;;;;;;;;;;;;;;;28.00;37.33;94831.56;4946841;28;7263;-59
2022/05/20 08:38:09;;;;;;;;;;;;;;;28.00;37.79;94823.25;4948115;28;7487;-59
2022/05/20 08:40:49;;;;;;;;;;;;;;;28.02;37.87;94823.50;4943685;28;7334;-59
2022/05/20 08:43:31;;;;;;;;;;;;;;;28.04;37.60;94818.94;4954617;28;9115;-60
2022/05/20 08:46:00;;;;;;;;;;;;;;;28.05;37.44;94808.66;4961957;28;7271;-60
2022/05/20 08:48:40;;;;;;;;;;;;;;;28.06;37.80;94801.81;4944415;28;9215;-59
2022/05/20 08:51:08;;;;;;;;;;;;;;;28.08;38.06;94807.59;4941220;28;8840;-60
2022/05/20 08:53:44;;;;;;;;;;;;;;;28.12;38.36;94813.59;4940688;28;9172;-60
2022/05/20 08:56:14;;;;;;;;;;;;;;;28.13;37.70;94815.84;4932699;28;9022;-59
2022/05/20 08:58:52;;;;;;;;;;;;;;;28.13;38.57;94812.31;4957634;28;9744;-60
2022/05/20 09:01:41;;;;;;;;;;;;;;;28.18;37.90;94814.31;4932969;28;8769;-59
2022/05/20 09:04:10;;;;;;;;;;;;;;;28.20;38.50;94809.00;4940513;28;7068;-60
2022/05/20 09:06:57;;;;;;;;;;;;;;;28.19;38.59;94808.25;4956810;28;9016;-61
2022/05/20 09:09:28;;;;;;;;;;;;;;;28.22;37.69;94803.69;4967576;28;9542;-60
2022/05/20 09:11:58;;;;;;;;;;;;;;;28.23;37.32;94805.19;4940143;28;8941;-59
2022/05/20 09:17:12;;;;;;;;;;;;;;;28.22;37.61;94795.41;4938719;28;7215;-60
2022/05/20 09:19:58;;;;;;;;;;;;;;;28.20;36.88;94789.63;4950997;28;9122;-60
2022/05/20 09:22:35;;;;;;;;;;;;;;;28.23;37.57;94785.84;4968166;28;9652;-60
2022/05/20 09:25:14;;;;;;;;;;;;;;;28.22;37.83;94787.09;4934899;28;7030;-60
2022/05/20 09:27:40;;;;;;;;;;;;;;;28.23;37.81;94791.38;4938307;28;7240;-60
2022/05/20 09:30:12;;;;;;;;;;;;;;;28.26;37.88;94785.53;4930404;28;9653;-60
2022/05/20 09:32:50;;;;;;;;;;;;;;;28.31;37.84;94786.75;4932469;28;7267;-60
2022/05/20 09:35:19;;;;;;;;;;;;;;;28.36;38.10;94781.16;4951319;28;7529;-59
2022/05/20 09:37:48;;;;;;;;;;;;;;;28.40;38.47;94778.09;4932559;28;9402;-60
2022/05/20 09:40:24;;;;;;;;;;;;;;;28.44;38.21;94766.72;4936899;28;7014;-60
2022/05/20 09:43:04;;;;;;;;;;;;;;;28.52;38.40;94768.41;4947033;28;7198;-60
2022/05/20 09:45:41;;;;;;;;;;;;;;;28.57;38.25;94769.59;4932743;28;9133;-60
2022/05/20 09:48:08;;;;;;;;;;;;;;;28.58;38.67;94771.88;4940187;28;9046;-60
2022/05/20 09:50:38;;;;;;;;;;;;;;;28.59;38.58;94764.31;4950620;28;7322;-59
2022/05/20 09:53:10;;;;;;;;;;;;;;;28.59;38.59;94765.06;4952813;28;9067;-59
2022/05/20 09:55:40;;;;;;;;;;;;;;;28.57;38.33;94764.84;4957191;28;9080;-60
2022/05/20 09:58:31;;;;;;;;;;;;;;;28.56;38.33;94768.84;4937773;28;7247;-59
2022/05/20 10:01:00;;;;;;;;;;;;;;;28.59;38.91;94767.09;4936674;28;7340;-59
2022/05/20 10:03:50;;;;;;;;;;;;;;;28.65;39.17;94765.00;4950167;28;9146;-59
2022/05/20 10:06:38;;;;;;;;;;;;;;;28.76;39.18;94760.06;4947983;28;7246;-59
2022/05/20 10:09:16;;;;;;;;;;;;;;;28.85;38.63;94764.50;4938138;28;8889;-59
2022/05/20 10:12:08;;;;;;;;;;;;;;;28.88;38.66;94757.91;4957762;28;6994;-59
2022/05/20 10:14:56;;;;;;;;;;;;;;;28.90;38.24;94753.34;4935266;28;8725;-59
2022/05/20 10:17:34;;;;;;;;;;;;;;;28.93;38.75;94746.00;4931194;28;7171;-59
2022/05/20 10:20:17;;;;;;;;;;;;;;;28.97;38.96;94752.00;4958267;28;7239;-60
2022/05/20 10:23:06;;;;;;;;;;;;;;;29.06;39.61;94763.44;4942838;28;7077;-60
2022/05/20 10:26:01;;;;;;;;;;;;;;;29.10;38.28;94761.09;4961223;28;7276;-59
2022/05/20 10:34:50;;;;;;;;;;;;;;;29.08;37.41;94751.81;4904858;29;7146;-59
2022/05/20 10:37:52;;;;;;;;;;;;;;;29.05;36.53;94734.25;4886309;29;9128;-59
2022/05/20 10:41:10;;;;;;;;;;;;;;;29.06;37.34;94741.28;4873651;29;9165;-59
2022/05/20 10:50:28;;;;;;;;;;;;;;;29.07;37.27;94734.47;4851938;29;7226;-59
2022/05/20 10:53:00;;;;;;;;;;;;;;;29.10;37.66;94727.88;4839285;29;7013;-60
2022/05/20 10:55:37;;;;;;;;;;;;;;;29.13;37.61;94720.53;4840448;29;7085;-60
2022/05/20 10:58:49;;;;;;;;;;;;;;;29.10;37.48;94704.97;4858363;29;9496;-61
2022/05/20 11:01:59;;;;;;;;;;;;;;;29.09;37.39;94714.56;4799073;29;7318;-60
2022/05/20 11:04:25;;;;;;;;;;;;;;;29.09;37.05;94709.75;4793768;29;6996;-60
2022/05/20 11:07:06;;;;;;;;;;;;;;;29.09;37.12;94704.22;4792893;29;8750;-60
2022/05/20 11:10:09;;;;;;;;;;;;;;;29.09;37.03;94693.16;4792954;29;7330;-60
2022/05/20 11:12:56;;;;;;;;;;;;;;;29.07;37.07;94681.84;4775059;30;9081;-59
2022/05/20 11:15:35;;;;;;;;;;;;;;;29.10;36.95;94674.50;4783957;29;7726;-60
2022/05/20 11:18:34;;;;;;;;;;;;;;;29.15;35.97;94673.66;4796371;29;7028;-60
2022/05/20 11:21:15;;;;;;;;;;;;;;;29.18;35.96;94671.88;4810513;29;7509;-59
2022/05/20 11:24:26;;;;;;;;;;;;;;;29.20;36.36;94670.09;4805525;29;7925;-60
2022/05/20 11:26:59;;;;;;;;;;;;;;;29.23;35.44;94657.22;4810478;29;7090;-60
2022/05/20 11:29:28;;;;;;;;;;;;;;;29.24;35.14;94661.47;4811923;29;7213;-59
2022/05/20 11:32:01;;;;;;;;;;;;;;;29.24;35.44;94653.91;4810154;29;9810;-60
2022/05/20 11:35:04;;;;;;;;;;;;;;;29.23;36.09;94649.63;4816652;29;9189;-60
2022/05/20 11:38:01;;;;;;;;;;;;;;;29.20;37.07;94642.38;4816168;29;8945;-60
2022/05/20 11:40:30;;;;;;;;;;;;;;;29.16;35.88;94630.88;4868014;29;7086;-59
2022/05/20 11:43:48;;;;;;;;;;;;;;;29.15;37.04;94628.59;4870321;29;9111;-60
2022/05/20 11:46:35;;;;;;;;;;;;;;;29.17;36.67;94626.81;4854292;29;7329;-59
2022/05/20 11:49:29;;;;;;;;;;;;;;;29.21;36.15;94620.97;4860051;29;7228;-59
2022/05/20 11:52:35;;;;;;;;;;;;;;;29.23;36.31;94618.41;4911981;29;7659;-59
2022/05/20 11:55:19;;;;;;;;;;;;;;;29.27;34.33;94610.53;4896987;29;7241;-59
2022/05/20 11:57:59;;;;;;;;;;;;;;;29.27;34.39;94602.22;4895175;29;7514;-59
2022/05/20 12:00:27;;;;;;;;;;;;;;;29.28;33.31;94604.47;4897801;29;9149;-59
2022/05/20 12:03:18;;;;;;;;;;;;;;;29.30;34.33;94604.69;4895999;29;9458;-59
2022/05/20 12:06:17;;;;;;;;;;;;;;;29.28;34.92;94600.94;4895769;29;9184;-59
2022/05/20 12:08:45;;;;;;;;;;;;;;;29.26;35.20;94590.41;4905267;29;6868;-59
2022/05/20 12:12:04;;;;;;;;;;;;;;;29.30;34.61;94585.28;4908616;29;8323;-59
2022/05/20 12:15:06;;;;;;;;;;;;;;;29.35;33.98;94581.66;4885675;29;9001;-59
2022/05/20 12:18:14;;;;;;;;;;;;;;;29.38;33.59;94575.09;4899456;29;9287;-59
2022/05/20 12:26:46;;;;;;;;;;;;;;;29.41;34.00;94553.84;4937742;29;9160;-59
2022/05/20 12:29:43;;;;;;;;;;;;;;;29.45;33.99;94554.31;4932844;28;7184;-59
2022/05/20 12:32:40;;;;;;;;;;;;;;;29.49;33.50;94546.41;4942212;28;7200;-59
2022/05/20 12:35:08;;;;;;;;;;;;;;;29.53;34.03;94542.03;4941759;28;8753;-60
2022/05/20 12:37:48;;;;;;;;;;;;;;;29.54;33.62;94531.69;4941399;28;7299;-60
2022/05/20 12:40:29;;;;;;;;;;;;;;;29.55;34.58;94533.19;4943452;28;7008;-60
2022/05/20 12:43:03;;;;;;;;;;;;;;;29.57;33.79;94530.63;4946577;28;7248;-59
2022/05/20 12:45:53;;;;;;;;;;;;;;;29.58;33.36;94521.75;4950719;28;7213;-59
2022/05/20 12:48:54;;;;;;;;;;;;;;;29.59;33.94;94517.72;4957551;28;8792;-60
2022/05/20 12:51:40;;;;;;;;;;;;;;;29.60;33.51;94513.66;4882279;29;9087;-59
2022/05/20 12:54:14;;;;;;;;;;;;;;;29.60;34.01;94508.13;4876794;29;9425;-60
2022/05/20 12:56:40;;;;;;;;;;;;;;;29.60;35.00;94510.16;4868342;29;9230;-59
2022/05/20 12:59:18;;;;;;;;;;;;;;;29.63;34.13;94503.53;4867607;29;9080;-59
2022/05/20 13:01:56;;;;;;;;;;;;;;;29.67;33.58;94501.94;4869082;29;9064;-59
2022/05/20 13:04:27;;;;;;;;;;;;;;;29.71;33.76;94493.31;4875251;29;7358;-59
2022/05/20 13:07:00;;;;;;;;;;;;;;;29.75;34.11;94490.97;4867669;29;7305;-59
2022/05/20 13:09:38;;;;;;;;;;;;;;;29.77;34.77;94485.63;4889849;29;9069;-60
2022/05/20 13:12:14;;;;;;;;;;;;;;;29.77;34.82;94486.38;4882917;29;7541;-59
2022/05/20 13:14:45;;;;;;;;;;;;;;;29.77;34.61;94482.88;4873083;29;7085;-60
2022/05/20 13:17:13;;;;;;;;;;;;;;;29.77;35.12;94477.31;4872753;29;7006;-59
2022/05/20 13:19:53;;;;;;;;;;;;;;;29.79;35.01;94477.53;4891918;29;6857;-59
2022/05/20 13:22:25;;;;;;;;;;;;;;;29.84;33.79;94473.88;4873911;29;9337;-59
2022/05/20 13:25:05;;;;;;;;;;;;;;;29.86;33.50;94468.56;4884784;29;8700;-60
2022/05/20 13:27:32;;;;;;;;;;;;;;;29.88;33.72;94474.31;4924042;28;9166;-60
2022/05/20 13:30:12;;;;;;;;;;;;;;;29.89;33.56;94464.69;4930792;28;7071;-59
2022/05/20 13:33:09;;;;;;;;;;;;;;;29.93;33.85;94470.66;4954608;28;6986;-60
2022/05/20 13:35:40;;;;;;;;;;;;;;;29.99;33.50;94460.19;4911406;29;8846;-59
2022/05/20 13:38:07;;;;;;;;;;;;;;;30.04;32.61;94456.53;4913758;28;7282;-60
2022/05/20 13:40:39;;;;;;;;;;;;;;;30.10;32.75;94454.38;4910186;29;7606;-59
2022/05/20 13:43:10;;;;;;;;;;;;;;;30.13;32.38;94455.31;4907282;29;7335;-59
2022/05/20 13:51:34;;;;;;;;;;;;;;;30.18;33.34;94449.66;4917749;28;7519;-60
2022/05/20 13:54:10;;;;;;;;;;;;;;;30.24;33.33;94455.06;4909185;29;9158;-61
2022/05/20 13:56:43;;;;;;;;;;;;;;;30.27;33.31;94451.97;4916147;28;6998;-60
2022/05/20 13:59:30;;;;;;;;;;;;;;;30.34;34.53;94440.19;4920926;28;7178;-60
2022/05/20 14:02:11;;;;;;;;;;;;;;;30.40;33.50;94440.84;4903019;29;7236;-60
2022/05/20 14:04:45;;;;;;;;;;;;;;;30.41;32.88;94436.75;4913544;29;7378;-60
2022/05/20 14:07:24;;;;;;;;;;;;;;;30.43;33.27;94441.75;4922912;28;9170;-60
2022/05/20 14:09:56;;;;;;;;;;;;;;;30.46;32.80;94441.44;4907536;29;7020;-60
2022/05/20 14:12:32;;;;;;;;;;;;;;;30.50;34.12;94436.28;4930630;28;9037;-60
2022/05/20 14:15:17;;;;;;;;;;;;;;;30.51;33.70;94429.44;4942711;28;7571;-60
2022/05/20 14:17:44;;;;;;;;;;;;;;;30.49;33.75;94426.47;4947822;28;6880;-60
2022/05/20 14:20:16;;;;;;;;;;;;;;;30.51;34.44;94426.66;4949612;28;7134;-59
2022/05/20 14:22:44;;;;;;;;;;;;;;;30.55;34.50;94423.56;4949103;28;9242;-59
2022/05/20 14:25:25;;;;;;;;;;;;;;;30.62;33.56;94427.69;4938142;28;7678;-60
2022/05/20 14:28:11;;;;;;;;;;;;;;;30.64;33.56;94417.53;4946789;28;9067;-59
2022/05/20 14:30:47;;;;;;;;;;;;;;;30.66;34.47;94416.97;4958449;28;9566;-60